Rodman, Iowa
Current Conditions -  °F | °C
As of 9:55 AM on Friday 31 Oct 2014 (Local Time) from KAXA Reporting Station
Clear Clear  
Wind Chill: -8°   Ceiling: Unl
Heat Index: -2°   Visibility: 10mi
Dew Point: -7°   Wind: 12mph
Humidity: 69%   Direction: 10°N
Pressure: 30.54"   Gusts: 20mph
Location:  43.0372°N, 94.5003°W
Report Text: KAXA 311455Z AUTO 01010G17KT 10SM CLR M02/M07 A3054 RMK AO2
Loading
Personal Weather Stations






























Interactive Weather Map
Tropical Storm Tracking
New forecast layout! Learn more

10-Day Weather Forecast

Advertisements
Track Severe Weather on mobile